Time;durP1;ratioP1;P1;durP2;ratioP2;P2;SDS_P1;SDS_P2;PMS_P1;PMS_P2;Temp;Humidity;BMP_temperature;BMP_pressure;BME280_temperature;BME280_humidity;BME280_pressure;Samples;Min_cycle;Max_cycle;Signal;HPM_P1;HPM_P2
2023/02/14 00:01:19;;;;;;;43.50;22.92;;;;;;;6.07;90.85;103016.81;5012090;28;20133;-62
2023/02/14 00:03:48;;;;;;;41.08;24.45;;;;;;;6.05;90.71;103016.84;5009866;28;20140;-62
2023/02/14 00:06:15;;;;;;;35.28;21.05;;;;;;;6.02;90.64;103016.81;5007607;28;20463;-62
2023/02/14 00:08:43;;;;;;;35.10;22.10;;;;;;;6.01;91.19;103015.09;5014410;28;20072;-63
2023/02/14 00:11:12;;;;;;;36.65;21.90;;;;;;;6.03;91.54;103018.59;5006487;28;20076;-61
2023/02/14 00:15:20;;;;;;;39.40;22.38;;;;;;;6.04;91.67;103001.16;5011391;28;20140;-60
2023/02/14 00:16:26;;;;;;;37.35;22.92;;;;;;;6.03;92.04;103000.28;5008290;28;20141;-60
2023/02/14 00:19:02;;;;;;;38.45;23.15;;;;;;;6.05;91.35;103008.13;5007486;28;20061;-63
2023/02/14 00:21:31;;;;;;;36.30;22.17;;;;;;;6.00;91.63;103007.25;5007886;28;20045;-61
2023/02/14 00:23:58;;;;;;;39.03;22.48;;;;;;;6.02;92.31;103011.59;5011310;28;20671;-61
2023/02/14 00:26:25;;;;;;;36.25;21.48;;;;;;;6.02;91.64;103005.50;5014906;28;20149;-62
2023/02/14 00:28:53;;;;;;;34.33;20.17;;;;;;;6.05;91.95;103008.13;5014098;28;20085;-61
2023/02/14 00:31:20;;;;;;;36.90;21.55;;;;;;;6.08;91.90;103016.84;5012185;28;20050;-62
2023/02/14 00:33:47;;;;;;;33.85;21.58;;;;;;;6.07;91.54;103008.97;5009188;28;20526;-63
2023/02/14 00:36:16;;;;;;;34.97;21.67;;;;;;;6.05;91.54;103002.88;5012731;28;20068;-60
2023/02/14 00:38:44;;;;;;;35.80;22.02;;;;;;;6.08;91.72;103010.75;5007725;28;20045;-61
2023/02/14 00:41:18;;;;;;;34.38;21.02;;;;;;;6.07;92.04;102994.16;5001077;28;20050;-64
2023/02/14 00:43:46;;;;;;;37.15;22.73;;;;;;;6.09;91.70;103004.63;5014056;28;20192;-64
2023/02/14 00:46:13;;;;;;;34.10;20.85;;;;;;;6.09;92.03;103000.25;5009968;28;20060;-60
2023/02/14 00:48:41;;;;;;;36.90;22.25;;;;;;;6.10;92.22;103006.38;5006750;28;20082;-61
2023/02/14 00:51:09;;;;;;;36.92;22.58;;;;;;;6.03;91.51;103000.28;5014121;28;20068;-62
2023/02/14 00:53:36;;;;;;;35.85;20.98;;;;;;;6.00;90.63;103004.66;5009708;28;20597;-62
2023/02/14 00:59:27;;;;;;;37.50;21.83;;;;;;;5.97;91.53;103000.28;5008454;28;20139;-62
2023/02/14 01:01:54;;;;;;;40.03;22.50;;;;;;;5.95;90.97;102994.19;5008431;28;20074;-64
2023/02/14 01:04:21;;;;;;;37.67;22.05;;;;;;;5.94;91.31;103000.28;5011150;28;20114;-63
2023/02/14 01:06:48;;;;;;;40.72;22.15;;;;;;;5.96;91.80;102995.94;5017318;28;20070;-64
2023/02/14 01:09:15;;;;;;;41.22;23.48;;;;;;;5.98;91.96;102996.78;5006630;28;20065;-58
2023/02/14 01:11:42;;;;;;;40.03;22.48;;;;;;;5.98;92.11;102996.78;5008853;28;20077;-63
2023/02/14 01:14:10;;;;;;;38.83;21.77;;;;;;;5.95;91.70;102993.34;5005209;28;20060;-60
2023/02/14 01:17:32;;;;;;;34.70;20.90;;;;;;;5.93;91.72;102993.31;5011228;28;20046;-61
2023/02/14 01:19:59;;;;;;;35.20;21.77;;;;;;;5.93;91.39;102982.84;5009465;28;20533;-64
2023/02/14 01:32:37;;;;;;;37.00;22.20;;;;;;;5.89;91.62;102986.31;5009369;28;20137;-60
2023/02/14 01:35:04;;;;;;;36.40;21.33;;;;;;;5.91;91.84;102979.34;5011604;28;20053;-63
2023/02/14 01:37:31;;;;;;;36.80;21.85;;;;;;;5.89;91.55;102972.38;5011585;28;20054;-61
2023/02/14 01:39:59;;;;;;;39.40;23.25;;;;;;;5.83;91.16;102974.13;5006721;28;20586;-61
2023/02/14 01:42:26;;;;;;;38.33;22.70;;;;;;;5.86;91.47;102969.78;5018405;28;20108;-62
2023/02/14 01:45:00;;;;;;;37.30;21.70;;;;;;;5.83;90.97;102965.41;5011879;28;20056;-62
2023/02/14 01:47:30;;;;;;;40.17;23.05;;;;;;;5.82;90.83;102966.31;5007853;28;20078;-62
2023/02/14 01:50:02;;;;;;;35.45;21.05;;;;;;;5.83;91.45;102963.66;5008880;28;20154;-62
2023/02/14 01:52:37;;;;;;;39.70;22.83;;;;;;;5.86;91.36;102960.19;5010221;28;20048;-63
2023/02/14 01:55:07;;;;;;;32.58;19.55;;;;;;;5.89;91.51;102959.31;5005339;28;20136;-62
2023/02/14 01:57:40;;;;;;;36.58;21.52;;;;;;;5.87;91.25;102956.69;5009924;28;20133;-62
2023/02/14 02:02:55;;;;;;;36.83;21.63;;;;;;;5.86;91.39;102964.56;5005602;28;20145;-62
2023/02/14 02:05:23;;;;;;;35.72;23.13;;;;;;;5.88;91.57;102954.97;5011393;28;20088;-60
2023/02/14 02:07:51;;;;;;;35.92;21.63;;;;;;;5.89;91.59;102961.91;5004374;28;20373;-64
2023/02/14 02:10:19;;;;;;;41.72;21.80;;;;;;;5.90;91.55;102964.53;5010094;28;20634;-62
2023/02/14 02:12:48;;;;;;;36.40;20.33;;;;;;;5.90;91.75;102969.78;5001113;28;20054;-62
2023/02/14 02:15:15;;;;;;;37.95;22.25;;;;;;;5.91;91.47;102965.41;4995289;28;20137;-63
2023/02/14 02:18:02;;;;;;;34.00;21.23;;;;;;;5.89;91.03;102956.69;5007589;28;20454;-63
2023/02/14 02:21:03;;;;;;;35.00;21.13;;;;;;;5.88;91.01;102957.56;5010574;28;20502;-62
2023/02/14 02:24:02;;;;;;;39.28;21.85;;;;;;;5.86;91.25;102961.94;5004960;28;20741;-63
2023/02/14 02:26:54;;;;;;;33.92;20.58;;;;;;;5.86;91.02;102964.56;4997516;28;20060;-63
2023/02/14 02:29:33;;;;;;;31.45;20.38;;;;;;;5.83;91.30;102968.91;5003586;28;20058;-61
2023/02/14 02:32:46;;;;;;;35.33;22.48;;;;;;;5.83;91.31;102962.81;5002235;28;20054;-62
2023/02/14 02:35:32;;;;;;;36.03;22.48;;;;;;;5.82;91.04;102961.06;4989853;28;20479;-62
2023/02/14 02:38:16;;;;;;;34.97;22.27;;;;;;;5.81;91.08;102960.22;4999771;28;20060;-62
2023/02/14 02:40:54;;;;;;;38.05;22.08;;;;;;;5.81;91.25;102960.22;5001681;28;20109;-62
2023/02/14 02:43:43;;;;;;;39.13;22.85;;;;;;;5.81;91.11;102956.72;5006095;28;20141;-62
2023/02/14 02:47:03;;;;;;;38.45;22.38;;;;;;;5.79;90.90;102963.69;4997804;28;20140;-62
2023/02/14 02:55:17;;;;;;;39.50;21.67;;;;;;;5.76;90.96;102966.28;4998262;28;20049;-62
2023/02/14 02:57:45;;;;;;;41.25;21.88;;;;;;;5.78;91.07;102969.78;5005628;28;22343;-62
2023/02/14 03:00:15;;;;;;;30.73;20.55;;;;;;;5.72;90.79;102964.53;5005069;28;20321;-62
2023/02/14 03:05:34;;;;;;;38.00;22.15;;;;;;;5.66;89.98;102968.03;4994886;28;20149;-63
2023/02/14 03:08:03;;;;;;;38.17;21.52;;;;;;;5.66;90.42;102967.19;5003039;28;20058;-61
2023/02/14 03:10:33;;;;;;;36.42;22.10;;;;;;;5.69;91.03;102965.44;5003836;28;20164;-62
2023/02/14 03:13:16;;;;;;;36.97;22.52;;;;;;;5.71;90.92;102968.03;5002491;28;20057;-63
2023/02/14 03:15:51;;;;;;;41.22;23.33;;;;;;;5.72;91.18;102962.84;5002414;28;20112;-61
2023/02/14 03:18:30;;;;;;;39.40;23.25;;;;;;;5.74;90.67;102965.44;5007655;28;20074;-62
2023/02/14 03:21:12;;;;;;;38.78;22.52;;;;;;;5.73;91.03;102968.94;5009132;28;20136;-61
2023/02/14 03:23:56;;;;;;;35.70;21.83;;;;;;;5.72;90.81;102965.44;5000429;28;20048;-62
2023/02/14 03:26:46;;;;;;;34.40;20.95;;;;;;;5.71;90.77;102958.47;5005328;28;20060;-62
2023/02/14 03:29:26;;;;;;;36.83;22.60;;;;;;;5.72;90.75;102970.69;5008582;28;20618;-62
2023/02/14 03:32:06;;;;;;;40.85;23.17;;;;;;;5.72;90.18;102959.31;5017524;28;20145;-63
2023/02/14 03:34:47;;;;;;;40.20;21.55;;;;;;;5.70;90.25;102958.47;5004967;28;20077;-63
2023/02/14 03:37:27;;;;;;;37.75;22.33;;;;;;;5.68;90.30;102960.22;5005817;28;20084;-63
2023/02/14 03:39:57;;;;;;;42.28;22.77;;;;;;;5.68;90.54;102955.88;5002949;28;20102;-63
2023/02/14 03:42:27;;;;;;;37.95;22.73;;;;;;;5.68;90.74;102958.47;5010068;28;20046;-63
2023/02/14 03:44:55;;;;;;;40.72;21.83;;;;;;;5.67;90.51;102961.94;5006248;28;20482;-62
2023/02/14 03:47:25;;;;;;;35.75;21.15;;;;;;;5.70;90.49;102961.09;5013559;28;20387;-61
2023/02/14 03:49:56;;;;;;;39.22;22.77;;;;;;;5.73;90.97;102961.09;5007538;28;20047;-62
2023/02/14 03:52:24;;;;;;;34.92;20.27;;;;;;;5.74;90.52;102960.22;5005812;28;20129;-58
2023/02/14 03:54:53;;;;;;;38.10;22.48;;;;;;;5.77;90.75;102961.06;5005357;28;20082;-59
2023/02/14 03:57:24;;;;;;;37.00;21.48;;;;;;;5.74;90.38;102955.84;5005243;28;20507;-61
2023/02/14 03:59:52;;;;;;;37.50;21.42;;;;;;;5.72;90.44;102952.38;5013624;28;20308;-59
2023/02/14 04:02:24;;;;;;;35.65;22.25;;;;;;;5.74;90.71;102957.59;5011769;28;20053;-58
2023/02/14 04:04:52;;;;;;;37.63;22.55;;;;;;;5.77;90.54;102949.75;4998676;28;20100;-59
2023/02/14 04:07:21;;;;;;;35.38;20.80;;;;;;;5.78;90.90;102954.09;5002278;28;20073;-60
2023/02/14 04:09:48;;;;;;;36.50;22.05;;;;;;;5.78;90.60;102961.94;5003995;28;20129;-59
2023/02/14 04:12:16;;;;;;;38.08;23.95;;;;;;;5.74;90.18;102950.63;5006717;28;20078;-60
2023/02/14 04:14:53;;;;;;;37.33;21.67;;;;;;;5.72;90.43;102946.25;5007040;28;20385;-61
2023/02/14 04:22:58;;;;;;;37.63;22.45;;;;;;;5.76;90.25;102955.84;5014784;28;20129;-60
2023/02/14 04:25:29;;;;;;;34.17;20.75;;;;;;;5.75;90.29;102949.75;5014713;28;20076;-60
2023/02/14 04:27:56;;;;;;;35.20;21.75;;;;;;;5.70;89.80;102953.25;5008474;28;20133;-61
2023/02/14 04:30:24;;;;;;;34.60;21.38;;;;;;;5.71;90.55;102947.13;5007101;28;20509;-61
2023/02/14 04:32:51;;;;;;;34.83;20.80;;;;;;;5.72;90.62;102949.78;5004301;28;20371;-61
2023/02/14 04:35:18;;;;;;;41.95;23.10;;;;;;;5.74;90.50;102948.00;5006231;28;20058;-58
2023/02/14 04:37:45;;;;;;;35.65;22.08;;;;;;;5.73;90.59;102948.03;5007743;28;20093;-60
2023/02/14 04:40:16;;;;;;;43.63;22.65;;;;;;;5.70;90.27;102946.28;5006405;28;20053;-60
2023/02/14 04:42:44;;;;;;;45.28;23.45;;;;;;;5.67;90.41;102950.63;5005256;28;20465;-59
2023/02/14 04:45:12;;;;;;;41.10;23.88;;;;;;;5.66;90.83;102941.03;4994854;28;20434;-60
2023/02/14 04:47:39;;;;;;;41.22;23.92;;;;;;;5.67;90.48;102942.78;5008160;28;20515;-61
2023/02/14 04:50:07;;;;;;;43.25;23.95;;;;;;;5.68;90.72;102942.81;5004481;28;20056;-58
2023/02/14 04:52:34;;;;;;;44.50;23.92;;;;;;;5.71;90.74;102936.69;5007318;28;20533;-61
2023/02/14 04:55:03;;;;;;;36.40;22.27;;;;;;;5.70;90.25;102938.44;5008912;28;20543;-60
2023/02/14 04:57:30;;;;;;;37.85;21.67;;;;;;;5.68;90.56;102931.47;5009437;28;20558;-60
2023/02/14 04:59:57;;;;;;;39.10;23.00;;;;;;;5.71;90.77;102932.31;5009485;28;20522;-60
2023/02/14 05:02:25;;;;;;;40.47;23.33;;;;;;;5.73;90.65;102934.94;5009334;28;20101;-62
2023/02/14 05:04:52;;;;;;;37.83;23.15;;;;;;;5.66;89.56;102930.59;5010521;28;20506;-60
2023/02/14 05:07:19;;;;;;;38.88;22.98;;;;;;;5.63;90.02;102926.25;5017661;28;20073;-62
2023/02/14 05:09:47;;;;;;;36.72;23.17;;;;;;;5.66;90.47;102933.22;5004839;28;20291;-60
2023/02/14 05:12:15;;;;;;;40.22;23.63;;;;;;;5.64;90.49;102928.00;5006593;28;20053;-62
2023/02/14 05:14:42;;;;;;;41.97;24.58;;;;;;;5.65;90.63;102931.47;5003253;28;20122;-61
2023/02/14 05:17:09;;;;;;;42.80;22.60;;;;;;;5.61;90.30;102924.50;5008829;28;20445;-56
2023/02/14 05:19:36;;;;;;;44.42;24.63;;;;;;;5.59;90.17;102927.13;5008956;28;20384;-61
2023/02/14 05:22:03;;;;;;;43.05;24.73;;;;;;;5.56;90.16;102925.38;5008479;28;20497;-63
2023/02/14 05:24:31;;;;;;;38.28;22.48;;;;;;;5.58;90.00;102926.28;5006679;28;20145;-63
2023/02/14 05:26:58;;;;;;;39.50;22.95;;;;;;;5.58;90.13;102927.97;5011711;28;20137;-60
2023/02/14 05:29:25;;;;;;;40.53;23.48;;;;;;;5.60;90.24;102926.25;5006953;28;20054;-62
2023/02/14 05:31:52;;;;;;;45.28;24.77;;;;;;;5.62;90.23;102921.03;5011854;28;20141;-59
2023/02/14 05:34:20;;;;;;;41.25;24.30;;;;;;;5.64;90.26;102927.13;5020258;28;20045;-59
2023/02/14 05:36:48;;;;;;;38.72;23.35;;;;;;;5.65;90.73;102921.03;5018198;28;20042;-58
2023/02/14 05:39:15;;;;;;;40.58;24.30;;;;;;;5.68;90.56;102921.03;4988973;28;20057;-58
2023/02/14 05:41:42;;;;;;;42.30;25.60;;;;;;;5.64;90.29;102921.91;5002219;28;20129;-58
2023/02/14 05:44:09;;;;;;;36.42;22.55;;;;;;;5.63;89.99;102914.91;5001406;28;20518;-58
2023/02/14 05:46:37;;;;;;;42.85;24.02;;;;;;;5.63;90.49;102913.19;4998863;28;20058;-60
2023/02/14 05:49:05;;;;;;;50.33;26.05;;;;;;;5.66;90.45;102926.22;5010054;28;20507;-57
2023/02/14 05:51:32;;;;;;;39.00;23.63;;;;;;;5.67;90.48;102920.13;5012049;28;20129;-58
2023/02/14 05:54:00;;;;;;;38.45;24.02;;;;;;;5.67;90.25;102914.03;5003743;28;20056;-60
2023/02/14 05:56:27;;;;;;;40.25;23.17;;;;;;;5.66;90.10;102920.16;5001637;28;20136;-60
2023/02/14 05:58:54;;;;;;;40.70;24.27;;;;;;;5.64;89.92;102914.94;4995157;28;20137;-58
2023/02/14 06:01:21;;;;;;;40.40;24.60;;;;;;;5.62;89.84;102911.44;4999264;28;20134;-60
2023/02/14 06:03:48;;;;;;;42.00;23.38;;;;;;;5.60;90.62;102902.75;5003469;28;20094;-60
2023/02/14 06:06:16;;;;;;;42.30;22.20;;;;;;;5.58;89.98;102914.91;4999863;28;20072;-62
2023/02/14 06:08:43;;;;;;;41.53;24.35;;;;;;;5.61;89.88;102909.69;5005878;28;20173;-60
2023/02/14 06:11:10;;;;;;;36.38;22.33;;;;;;;5.65;89.86;102919.28;5004485;28;20132;-60
2023/02/14 06:13:40;;;;;;;38.05;24.25;;;;;;;5.66;89.90;102917.53;5009484;28;20042;-60
2023/02/14 06:16:07;;;;;;;37.72;23.67;;;;;;;5.69;89.92;102918.41;5007644;28;20071;-60
2023/02/14 06:18:34;;;;;;;41.95;23.65;;;;;;;5.71;90.03;102921.88;5012843;28;20066;-61
2023/02/14 06:21:01;;;;;;;41.53;23.70;;;;;;;5.70;89.55;102924.50;5022143;28;20180;-62
2023/02/14 06:23:29;;;;;;;40.25;23.35;;;;;;;5.68;89.92;102921.03;5018457;28;20170;-62
2023/02/14 06:25:56;;;;;;;49.53;26.42;;;;;;;5.67;89.97;102922.75;5009794;28;20089;-59
2023/02/14 06:28:23;;;;;;;40.28;24.92;;;;;;;5.65;89.85;102919.28;5000530;28;20278;-61
2023/02/14 06:30:50;;;;;;;40.42;24.02;;;;;;;5.63;90.04;102923.66;5008355;28;20487;-61
2023/02/14 06:33:18;;;;;;;37.60;22.95;;;;;;;5.65;90.33;102926.25;5015773;28;20446;-61
2023/02/14 06:35:46;;;;;;;41.00;24.13;;;;;;;5.68;90.12;102923.66;5021485;28;20073;-60
2023/02/14 06:38:13;;;;;;;37.13;22.60;;;;;;;5.69;90.32;102931.47;5016131;28;20077;-61
2023/02/14 06:40:40;;;;;;;41.53;22.15;;;;;;;5.68;89.90;102921.03;5015815;28;20137;-61
2023/02/14 06:43:07;;;;;;;40.03;23.38;;;;;;;5.66;89.93;102923.63;5007360;28;20125;-61
2023/02/14 06:45:35;;;;;;;44.33;24.15;;;;;;;5.64;90.36;102922.78;5010497;28;20533;-59
2023/02/14 06:48:02;;;;;;;39.00;23.80;;;;;;;5.67;90.21;102924.50;5001820;28;20058;-60
2023/02/14 06:50:29;;;;;;;37.88;22.52;;;;;;;5.66;90.08;102921.00;5003496;28;20096;-60
2023/02/14 06:52:57;;;;;;;39.60;24.23;;;;;;;5.69;89.73;102920.16;5002221;28;20090;-60
2023/02/14 06:55:24;;;;;;;48.42;26.20;;;;;;;5.71;90.01;102927.09;5002888;28;20141;-61
2023/02/14 06:57:51;;;;;;;41.85;23.33;;;;;;;5.72;89.89;102921.03;5003084;28;20046;-59
2023/02/14 07:00:20;;;;;;;34.10;22.95;;;;;;;5.74;89.68;102923.63;5006106;28;20455;-59
2023/02/14 07:02:47;;;;;;;41.28;24.42;;;;;;;5.76;89.96;102927.09;4995658;28;20046;-61
2023/02/14 07:05:17;;;;;;;43.90;24.67;;;;;;;5.77;89.98;102921.00;5007184;28;20133;-60
2023/02/14 07:07:45;;;;;;;43.28;25.58;;;;;;;5.77;89.73;102918.41;5007334;28;20108;-60
2023/02/14 07:10:13;;;;;;;42.65;23.95;;;;;;;5.72;89.42;102920.13;4997516;28;20657;-60
2023/02/14 07:12:40;;;;;;;44.90;25.15;;;;;;;5.72;89.67;102914.88;5011269;28;20134;-59
2023/02/14 07:15:10;;;;;;;41.63;24.58;;;;;;;5.72;89.70;102918.41;5006633;28;20076;-58
2023/02/14 07:17:37;;;;;;;45.25;24.90;;;;;;;5.75;89.80;102923.59;5008506;28;20062;-62
2023/02/14 07:20:06;;;;;;;42.22;26.48;;;;;;;5.71;89.73;102916.63;5000310;28;20487;-59
2023/02/14 07:22:33;;;;;;;46.63;26.70;;;;;;;5.71;89.69;102915.78;5014066;28;20523;-60
2023/02/14 07:25:01;;;;;;;46.50;26.70;;;;;;;5.74;89.96;102915.78;5002265;28;20081;-60
2023/02/14 07:27:28;;;;;;;49.38;27.63;;;;;;;5.73;89.91;102917.53;5015010;28;20085;-59
2023/02/14 07:29:55;;;;;;;51.03;27.83;;;;;;;5.75;89.78;102918.38;5014124;28;20468;-60
2023/02/14 07:32:22;;;;;;;41.20;26.38;;;;;;;5.74;89.89;102921.88;5011500;28;20475;-60
2023/02/14 07:34:50;;;;;;;51.92;27.42;;;;;;;5.77;89.83;102926.22;5005927;28;20141;-60
2023/02/14 07:37:17;;;;;;;45.65;28.35;;;;;;;5.78;89.82;102930.59;5007008;28;20052;-60
2023/02/14 07:39:45;;;;;;;37.08;23.70;;;;;;;5.81;90.15;102933.19;5004816;28;20069;-57
2023/02/14 07:42:12;;;;;;;46.75;26.75;;;;;;;5.80;89.56;102927.06;5019364;28;20049;-61
2023/02/14 07:44:39;;;;;;;48.95;27.48;;;;;;;5.77;89.24;102924.50;4997735;28;20140;-59
2023/02/14 07:47:08;;;;;;;49.75;27.95;;;;;;;5.81;90.16;102923.63;5002891;28;20467;-60
2023/02/14 07:49:35;;;;;;;41.17;25.77;;;;;;;5.85;90.09;102919.22;5003660;28;20330;-60
2023/02/14 07:52:03;;;;;;;39.28;24.05;;;;;;;5.87;90.14;102919.25;4999556;28;20580;-59
2023/02/14 07:54:31;;;;;;;43.72;26.02;;;;;;;5.89;89.99;102913.13;5002702;28;20058;-59
2023/02/14 07:56:58;;;;;;;41.38;25.13;;;;;;;5.90;89.99;102912.25;5001394;28;20060;-59
2023/02/14 07:59:25;;;;;;;45.15;25.13;;;;;;;5.94;89.97;102915.75;5009759;28;20060;-61
2023/02/14 08:01:52;;;;;;;42.28;25.52;;;;;;;5.96;89.64;102916.63;4998723;28;20450;-60
2023/02/14 08:04:20;;;;;;;36.85;24.88;;;;;;;5.98;89.81;102920.97;4998249;28;20126;-57
2023/02/14 08:06:47;;;;;;;39.63;25.27;;;;;;;5.97;89.61;102923.59;4998817;28;20042;-60
2023/02/14 08:09:23;;;;;;;37.90;25.92;;;;;;;5.94;89.11;102923.59;5001680;28;20052;-60
2023/02/14 08:14:37;;;;;;;42.47;26.42;;;;;;;5.82;87.02;102920.13;5015562;28;20482;-58
2023/02/14 08:17:08;;;;;;;41.85;25.20;;;;;;;5.83;88.24;102926.22;5003975;28;20099;-60
2023/02/14 08:19:36;;;;;;;37.85;24.45;;;;;;;5.90;89.24;102927.06;4997842;28;20129;-60
2023/02/14 08:22:03;;;;;;;47.13;26.60;;;;;;;5.94;88.94;102936.66;5004580;28;20096;-60
2023/02/14 08:24:31;;;;;;;40.72;25.85;;;;;;;5.98;88.99;102935.78;5009901;28;20459;-60
2023/02/14 08:26:58;;;;;;;40.72;25.25;;;;;;;6.02;88.95;102940.13;5007191;28;20507;-57
2023/02/14 08:29:26;;;;;;;41.35;26.33;;;;;;;6.07;88.80;102944.47;4997027;28;20145;-61
2023/02/14 08:31:53;;;;;;;40.00;25.75;;;;;;;6.08;89.27;102948.84;4997101;28;20070;-61
2023/02/14 08:34:20;;;;;;;39.33;25.88;;;;;;;6.06;88.68;102944.47;5000241;28;20107;-60
2023/02/14 08:36:47;;;;;;;40.17;26.10;;;;;;;6.10;88.78;102940.97;4997636;28;20046;-59
2023/02/14 08:39:15;;;;;;;40.58;26.85;;;;;;;6.13;89.26;102945.34;4999589;28;20469;-59
2023/02/14 08:41:42;;;;;;;44.78;27.10;;;;;;;6.09;88.35;102947.97;5000028;28;20054;-59
2023/02/14 08:44:09;;;;;;;40.28;26.23;;;;;;;6.13;88.79;102954.06;5000283;28;20116;-58
2023/02/14 08:46:36;;;;;;;40.63;26.35;;;;;;;6.14;88.72;102953.19;5003857;28;20129;-59
2023/02/14 08:49:03;;;;;;;40.75;25.83;;;;;;;6.11;87.73;102962.78;4999612;28;20142;-58
2023/02/14 08:51:31;;;;;;;42.60;25.95;;;;;;;6.13;88.38;102961.91;5008720;28;20574;-59
2023/02/14 08:53:58;;;;;;;46.90;27.70;;;;;;;6.16;88.67;102959.25;5004767;28;20050;-60
2023/02/14 08:56:25;;;;;;;41.92;25.90;;;;;;;6.14;88.00;102961.03;4997738;28;20050;-58
2023/02/14 08:58:53;;;;;;;43.30;25.88;;;;;;;6.12;87.57;102952.28;5006825;28;20128;-59
2023/02/14 09:01:20;;;;;;;41.03;25.65;;;;;;;6.15;88.48;102956.66;4996658;28;20058;-58
2023/02/14 09:03:48;;;;;;;47.78;26.15;;;;;;;6.22;88.87;102959.25;5015748;28;20145;-60
2023/02/14 09:06:16;;;;;;;50.45;28.52;;;;;;;6.25;87.96;102960.97;5007777;28;20053;-61
2023/02/14 09:08:45;;;;;;;43.80;27.70;;;;;;;6.23;88.10;102952.28;5008308;28;20064;-59
2023/02/14 09:11:17;;;;;;;42.42;26.55;;;;;;;6.27;88.81;102951.41;5006795;28;21392;-58
2023/02/14 09:13:45;;;;;;;43.17;26.48;;;;;;;6.30;88.76;102946.13;5012267;28;20537;-60
2023/02/14 09:16:16;;;;;;;44.30;26.70;;;;;;;6.31;88.68;102959.22;5014064;28;20132;-61
2023/02/14 09:18:44;;;;;;;47.80;27.88;;;;;;;6.34;88.52;102958.31;5002172;28;20144;-61
2023/02/14 09:21:14;;;;;;;49.85;30.38;;;;;;;6.40;88.64;102965.31;5007603;28;20049;-56
2023/02/14 09:23:41;;;;;;;43.47;27.00;;;;;;;6.41;88.02;102962.66;5011566;28;20058;-59
2023/02/14 09:26:11;;;;;;;41.75;26.17;;;;;;;6.43;88.79;102960.91;5009030;28;20537;-62
2023/02/14 09:28:39;;;;;;;49.60;27.67;;;;;;;6.36;86.30;102953.09;5001692;28;20140;-60
2023/02/14 09:31:13;;;;;;;44.17;26.65;;;;;;;6.37;86.55;102957.47;5007947;28;20124;-59
2023/02/14 09:36:26;;;;;;;;;;;;;;;6.48;87.90;102951.28;5007346;28;20053;-58
2023/02/14 09:38:53;;;;;;;48.40;28.13;;;;;;;6.55;88.19;102954.75;5009659;28;19928;-58
2023/02/14 09:41:29;;;;;;;40.03;25.85;;;;;;;6.50;87.99;102956.53;5010003;28;20096;-59
2023/02/14 09:44:07;;;;;;;;;;;;;;;6.54;88.05;102953.88;5003769;28;20112;-57
2023/02/14 09:46:40;;;;;;;44.25;26.70;;;;;;;6.58;88.91;102954.75;5004492;28;20020;-59
2023/02/14 09:49:12;;;;;;;43.60;28.42;;;;;;;6.62;88.57;102961.72;5020117;28;20068;-60
2023/02/14 09:51:46;;;;;;;46.20;28.00;;;;;;;6.68;88.21;102961.66;5019822;28;20048;-60
2023/02/14 09:54:18;;;;;;;44.58;28.27;;;;;;;6.72;87.91;102966.00;5002995;28;20058;-58
2023/02/14 09:57:02;;;;;;;43.92;27.80;;;;;;;6.76;86.59;102969.50;5002341;28;20368;-61
2023/02/14 09:59:57;;;;;;;46.80;26.63;;;;;;;6.72;85.45;102970.38;4996740;28;20113;-59
2023/02/14 10:02:46;;;;;;;46.17;27.30;;;;;;;6.73;85.32;102964.25;5007639;28;20506;-60
2023/02/14 10:05:17;;;;;;;41.60;25.88;;;;;;;6.75;84.67;102967.72;5004769;28;20593;-62
2023/02/14 10:07:56;;;;;;;42.83;26.92;;;;;;;6.74;84.81;102961.63;5008329;28;20505;-61
2023/02/14 10:10:42;;;;;;;39.70;26.45;;;;;;;6.77;84.60;102963.38;5006755;28;20140;-61
2023/02/14 10:13:15;;;;;;;44.78;27.08;;;;;;;6.76;84.92;102961.63;5006161;28;20536;-62
2023/02/14 10:15:45;;;;;;;43.20;26.13;;;;;;;6.82;85.38;102962.44;5008899;28;20060;-61
2023/02/14 10:18:18;;;;;;;41.15;26.05;;;;;;;6.82;84.84;102962.44;5007846;28;20176;-62
2023/02/14 10:20:57;;;;;;;38.30;25.48;;;;;;;6.85;85.96;102957.22;5016808;28;20041;-61
2023/02/14 10:23:33;;;;;;;42.63;27.17;;;;;;;6.90;85.76;102956.31;5004327;28;20121;-62
2023/02/14 10:26:13;;;;;;;45.78;27.73;;;;;;;6.95;85.06;102955.41;5003624;28;20581;-62
2023/02/14 10:28:48;;;;;;;42.50;26.02;;;;;;;6.91;84.92;102955.44;5004783;28;20133;-62
2023/02/14 10:31:38;;;;;;;42.50;25.87;;;;;;;6.93;85.23;102949.28;5000257;28;20058;-62
2023/02/14 10:34:47;;;;;;;40.78;25.85;;;;;;;6.98;85.87;102947.53;5008591;28;20574;-60
2023/02/14 10:37:27;;;;;;;42.67;26.42;;;;;;;7.01;85.97;102950.09;5006262;28;20064;-62
2023/02/14 10:40:08;;;;;;;41.67;25.38;;;;;;;7.04;84.66;102946.59;4993041;28;20137;-61
2023/02/14 10:42:47;;;;;;;42.63;26.63;;;;;;;7.06;84.68;102939.59;5003792;28;20072;-61
2023/02/14 10:45:21;;;;;;;45.30;25.45;;;;;;;7.07;84.27;102936.13;5003024;28;20113;-61
2023/02/14 10:48:22;;;;;;;38.88;25.23;;;;;;;7.10;84.61;102942.19;5001475;28;20056;-60
2023/02/14 10:51:08;;;;;;;37.63;24.30;;;;;;;7.12;84.64;102941.31;4999034;28;20056;-61
2023/02/14 10:53:50;;;;;;;39.92;25.63;;;;;;;7.12;84.84;102943.94;4994300;28;20144;-61
2023/02/14 10:56:31;;;;;;;40.70;25.65;;;;;;;7.12;84.28;102942.19;5007788;28;20064;-63
2023/02/14 10:59:03;;;;;;;39.08;24.77;;;;;;;7.12;84.29;102938.72;4994160;28;20141;-62
2023/02/14 11:01:30;;;;;;;41.83;25.13;;;;;;;7.17;83.89;102942.16;5008484;28;20157;-62
2023/02/14 11:04:02;;;;;;;38.08;25.58;;;;;;;7.17;82.83;102943.03;5000010;28;20514;-62
2023/02/14 11:06:30;;;;;;;33.03;23.40;;;;;;;7.21;83.73;102936.88;5001207;28;20050;-62
2023/02/14 11:08:57;;;;;;;34.85;24.65;;;;;;;7.28;83.87;102935.06;4999571;28;20076;-62
2023/02/14 11:11:30;;;;;;;39.08;25.55;;;;;;;7.29;84.07;102932.44;5005685;28;20153;-62
2023/02/14 11:13:58;;;;;;;38.28;25.05;;;;;;;7.35;83.02;102931.53;5019704;28;20137;-62
2023/02/14 11:16:28;;;;;;;37.35;25.40;;;;;;;7.37;83.17;102932.38;4999826;28;20518;-62
2023/02/14 11:19:14;;;;;;;35.83;22.95;;;;;;;7.30;83.17;102934.19;5004035;28;20137;-62
2023/02/14 11:21:44;;;;;;;34.17;22.97;;;;;;;7.29;84.00;102926.31;4998922;28;20046;-61
2023/02/14 11:24:18;;;;;;;37.83;24.88;;;;;;;7.29;82.49;102926.31;5004557;28;20582;-62
2023/02/14 11:26:47;;;;;;;38.60;24.77;;;;;;;7.31;82.21;102927.19;5011216;28;20065;-62
2023/02/14 11:29:21;;;;;;;36.40;24.73;;;;;;;7.32;82.85;102921.06;4994038;28;20077;-62
2023/02/14 11:31:48;;;;;;;41.38;25.42;;;;;;;7.36;82.87;102920.16;4989068;28;20140;-61
2023/02/14 11:34:25;;;;;;;36.60;24.13;;;;;;;7.35;81.68;102923.66;5008317;28;20050;-62
2023/02/14 11:36:53;;;;;;;42.05;25.77;;;;;;;7.36;80.83;102921.03;5016759;28;20069;-61
2023/02/14 11:39:31;;;;;;;34.78;24.80;;;;;;;7.35;81.14;102923.66;5012826;28;20089;-63
2023/02/14 11:42:02;;;;;;;36.88;24.38;;;;;;;7.38;80.47;102921.00;5007313;28;20133;-60
2023/02/14 11:44:32;;;;;;;37.65;24.00;;;;;;;7.34;79.95;102921.94;5018655;28;20088;-62
2023/02/14 11:47:18;;;;;;;35.08;24.85;;;;;;;7.32;80.37;102918.44;4999980;28;20053;-62
2023/02/14 11:49:57;;;;;;;35.35;23.63;;;;;;;7.31;79.91;102917.56;4995185;28;20592;-59
2023/02/14 11:52:27;;;;;;;40.13;23.70;;;;;;;7.29;79.80;102921.06;5004539;28;20549;-62
2023/02/14 11:54:56;;;;;;;38.25;25.05;;;;;;;7.25;79.58;102916.75;5002290;28;20062;-60
2023/02/14 11:57:34;;;;;;;39.25;24.02;;;;;;;7.25;80.02;102914.13;5004741;28;20077;-61
2023/02/14 12:00:04;;;;;;;34.50;23.92;;;;;;;7.28;79.90;102912.34;5001882;28;20058;-62
2023/02/14 12:02:39;;;;;;;39.78;24.88;;;;;;;7.31;79.86;102911.47;5001140;28;20507;-62
2023/02/14 12:05:26;;;;;;;30.20;21.95;;;;;;;7.24;78.95;102909.78;5001632;28;20101;-61
2023/02/14 12:07:53;;;;;;;;;;;;;;;7.17;78.25;102902.88;4999442;28;20129;-61
2023/02/14 12:10:25;;;;;;;34.00;23.95;;;;;;;7.14;81.12;102893.25;4998777;28;20406;-61
2023/02/14 12:13:23;;;;;;;34.10;23.33;;;;;;;7.18;81.74;102894.13;5007524;28;20062;-61